Strona główna
METAR-TAF:

METAR-TAF

Lotnisko :

Hazleton, Pensylwania, Stany Zjednoczone

Szerokość geograficzna: 40-59-12N, Długość geograficzna: 075-59-42W, wysokość: 489 m

Aktualna obserwacja pogody

Raport powstał 27 minut temu, godzina 07:35 UTC
Cisza
Temperatura 2°C
Wilgotność 87%
Ciśnienie 1020 hPa
Widzialność: 16.1 km
Zachmurzenie całkowite na wysokości 1300 ft

METAR: KHZL 190735Z AUTO 00000KT 10SM OVC013 02/00 A3012 RMK AO2

czas: 03:02 (08:02 UTC)


TAF: brakujący

Obserwacja i prognoza pogody dla ponad 4000 lotnisk (raport METAR i TAF).

Dostępne stacje oznaczono żółtymi i czerwonymi punktami na mapie.

Najedź kursorem aby zobaczyć nazwę stacji.

Kliknij aby zobaczyć obserwacje i prognozy pogody.

Aby zmienić mapę: kliknij na zielony przycisk z czarnym krzyżykiem, aby powiększyć; na zielony przycisk z myślnikiem, aby pomniejszyć; na zielone strzałki, aby przejść do map sąsiednich.


METAR-TAF: